sensor_id;sensor_type;location;lat;lon;timestamp;temperature;humidity
68648;SHT31;55632;51.962;16.116;2022-12-15T00:03:18;-7.69;84.20
68648;SHT31;55632;51.962;16.116;2022-12-15T00:08:37;-7.75;84.37
68648;SHT31;55632;51.962;16.116;2022-12-15T00:13:58;-7.78;84.43
68648;SHT31;55632;51.962;16.116;2022-12-15T00:19:17;-7.83;84.30
68648;SHT31;55632;51.962;16.116;2022-12-15T00:24:36;-7.83;84.26
68648;SHT31;55632;51.962;16.116;2022-12-15T00:29:56;-7.90;83.97
68648;SHT31;55632;51.962;16.116;2022-12-15T00:35:15;-7.99;83.89
68648;SHT31;55632;51.962;16.116;2022-12-15T00:40:35;-8.09;83.65
68648;SHT31;55632;51.962;16.116;2022-12-15T00:45:36;-8.16;83.76
68648;SHT31;55632;51.962;16.116;2022-12-15T00:50:55;-8.20;83.72
68648;SHT31;55632;51.962;16.116;2022-12-15T00:55:56;-8.29;83.59
68648;SHT31;55632;51.962;16.116;2022-12-15T01:01:15;-8.34;83.55
68648;SHT31;55632;51.962;16.116;2022-12-15T01:06:35;-8.38;83.57
68648;SHT31;55632;51.962;16.116;2022-12-15T01:11:54;-8.41;83.67
68648;SHT31;55632;51.962;16.116;2022-12-15T01:17:14;-8.44;83.68
68648;SHT31;55632;51.962;16.116;2022-12-15T01:22:35;-8.46;83.55
68648;SHT31;55632;51.962;16.116;2022-12-15T01:27:36;-8.53;83.64
68648;SHT31;55632;51.962;16.116;2022-12-15T01:32:37;-8.50;83.71
68648;SHT31;55632;51.962;16.116;2022-12-15T01:37:38;-8.55;83.57
68648;SHT31;55632;51.962;16.116;2022-12-15T01:42:38;-8.58;83.66
68648;SHT31;55632;51.962;16.116;2022-12-15T01:47:40;-8.61;83.78
68648;SHT31;55632;51.962;16.116;2022-12-15T01:52:41;-8.61;83.77
68648;SHT31;55632;51.962;16.116;2022-12-15T01:57:42;-8.60;83.96
68648;SHT31;55632;51.962;16.116;2022-12-15T02:02:43;-8.57;84.04
68648;SHT31;55632;51.962;16.116;2022-12-15T02:07:44;-8.54;83.98
68648;SHT31;55632;51.962;16.116;2022-12-15T02:28:42;-8.37;84.43
68648;SHT31;55632;51.962;16.116;2022-12-15T02:33:54;-8.32;84.50
68648;SHT31;55632;51.962;16.116;2022-12-15T02:38:57;-8.25;84.56
68648;SHT31;55632;51.962;16.116;2022-12-15T02:43:59;-8.23;84.59
68648;SHT31;55632;51.962;16.116;2022-12-15T02:55:08;-8.05;84.75
68648;SHT31;55632;51.962;16.116;2022-12-15T03:00:12;-7.97;84.79
68648;SHT31;55632;51.962;16.116;2022-12-15T03:05:16;-7.90;84.85
68648;SHT31;55632;51.962;16.116;2022-12-15T03:10:19;-7.84;84.90
68648;SHT31;55632;51.962;16.116;2022-12-15T03:15:20;-7.75;84.96
68648;SHT31;55632;51.962;16.116;2022-12-15T03:20:21;-7.69;84.98
68648;SHT31;55632;51.962;16.116;2022-12-15T03:25:22;-7.61;84.97
68648;SHT31;55632;51.962;16.116;2022-12-15T03:30:23;-7.57;85.05
68648;SHT31;55632;51.962;16.116;2022-12-15T03:35:24;-7.51;85.10
68648;SHT31;55632;51.962;16.116;2022-12-15T03:40:25;-7.46;85.18
68648;SHT31;55632;51.962;16.116;2022-12-15T03:45:27;-7.35;85.30
68648;SHT31;55632;51.962;16.116;2022-12-15T03:50:28;-7.28;85.34
68648;SHT31;55632;51.962;16.116;2022-12-15T03:55:29;-7.21;85.42
68648;SHT31;55632;51.962;16.116;2022-12-15T04:00:31;-7.12;85.51
68648;SHT31;55632;51.962;16.116;2022-12-15T04:05:33;-7.05;85.52
68648;SHT31;55632;51.962;16.116;2022-12-15T04:10:34;-6.98;85.61
68648;SHT31;55632;51.962;16.116;2022-12-15T04:15:37;-6.87;85.67
68648;SHT31;55632;51.962;16.116;2022-12-15T04:20:39;-6.79;85.74
68648;SHT31;55632;51.962;16.116;2022-12-15T04:25:40;-6.70;85.79
68648;SHT31;55632;51.962;16.116;2022-12-15T04:31:06;-6.62;85.83
68648;SHT31;55632;51.962;16.116;2022-12-15T04:36:27;-6.52;85.87
68648;SHT31;55632;51.962;16.116;2022-12-15T04:41:46;-6.48;85.82
68648;SHT31;55632;51.962;16.116;2022-12-15T04:47:06;-6.41;85.88
68648;SHT31;55632;51.962;16.116;2022-12-15T04:52:26;-6.32;86.03
68648;SHT31;55632;51.962;16.116;2022-12-15T04:57:46;-6.21;86.04
68648;SHT31;55632;51.962;16.116;2022-12-15T05:03:06;-6.13;86.09
68648;SHT31;55632;51.962;16.116;2022-12-15T05:08:26;-6.04;86.07
68648;SHT31;55632;51.962;16.116;2022-12-15T05:13:45;-5.97;86.06
68648;SHT31;55632;51.962;16.116;2022-12-15T05:19:05;-5.93;86.06
68648;SHT31;55632;51.962;16.116;2022-12-15T05:24:24;-5.86;86.09
68648;SHT31;55632;51.962;16.116;2022-12-15T05:29:43;-5.83;86.07
68648;SHT31;55632;51.962;16.116;2022-12-15T05:35:03;-5.76;86.13
68648;SHT31;55632;51.962;16.116;2022-12-15T05:40:04;-5.69;86.13
68648;SHT31;55632;51.962;16.116;2022-12-15T05:45:05;-5.62;86.13
68648;SHT31;55632;51.962;16.116;2022-12-15T05:50:07;-5.55;86.15
68648;SHT31;55632;51.962;16.116;2022-12-15T05:55:08;-5.48;86.15
68648;SHT31;55632;51.962;16.116;2022-12-15T06:00:09;-5.42;86.15
68648;SHT31;55632;51.962;16.116;2022-12-15T06:05:13;-5.35;86.19
68648;SHT31;55632;51.962;16.116;2022-12-15T06:10:14;-5.30;86.21
68648;SHT31;55632;51.962;16.116;2022-12-15T06:15:14;-5.23;86.23
68648;SHT31;55632;51.962;16.116;2022-12-15T06:20:16;-5.18;86.21
68648;SHT31;55632;51.962;16.116;2022-12-15T06:25:16;-5.13;86.15
68648;SHT31;55632;51.962;16.116;2022-12-15T06:30:17;-5.07;86.18
68648;SHT31;55632;51.962;16.116;2022-12-15T06:35:18;-5.03;86.18
68648;SHT31;55632;51.962;16.116;2022-12-15T06:40:19;-4.95;86.27
68648;SHT31;55632;51.962;16.116;2022-12-15T06:45:20;-4.89;86.30
68648;SHT31;55632;51.962;16.116;2022-12-15T06:50:20;-4.82;86.32
68648;SHT31;55632;51.962;16.116;2022-12-15T06:55:21;-4.78;86.36
68648;SHT31;55632;51.962;16.116;2022-12-15T07:00:22;-4.75;86.39
68648;SHT31;55632;51.962;16.116;2022-12-15T07:05:23;-4.68;86.47
68648;SHT31;55632;51.962;16.116;2022-12-15T07:10:23;-4.62;86.57
68648;SHT31;55632;51.962;16.116;2022-12-15T07:15:24;-4.58;86.54
68648;SHT31;55632;51.962;16.116;2022-12-15T07:20:25;-4.54;86.63
68648;SHT31;55632;51.962;16.116;2022-12-15T07:25:26;-4.47;86.65
68648;SHT31;55632;51.962;16.116;2022-12-15T07:30:27;-4.38;86.71
68648;SHT31;55632;51.962;16.116;2022-12-15T07:35:28;-4.33;86.87
68648;SHT31;55632;51.962;16.116;2022-12-15T07:40:29;-4.23;86.82
68648;SHT31;55632;51.962;16.116;2022-12-15T07:45:30;-4.16;86.89
68648;SHT31;55632;51.962;16.116;2022-12-15T07:50:31;-4.05;86.96
68648;SHT31;55632;51.962;16.116;2022-12-15T07:55:32;-3.96;86.98
68648;SHT31;55632;51.962;16.116;2022-12-15T08:00:33;-3.86;87.04
68648;SHT31;55632;51.962;16.116;2022-12-15T08:05:34;-3.78;87.05
68648;SHT31;55632;51.962;16.116;2022-12-15T08:10:37;-3.73;87.02
68648;SHT31;55632;51.962;16.116;2022-12-15T08:15:39;-3.60;87.06
68648;SHT31;55632;51.962;16.116;2022-12-15T08:20:40;-3.51;87.17
68648;SHT31;55632;51.962;16.116;2022-12-15T08:25:41;-3.43;87.24
68648;SHT31;55632;51.962;16.116;2022-12-15T08:30:42;-3.33;87.20
68648;SHT31;55632;51.962;16.116;2022-12-15T08:35:43;-3.26;87.21
68648;SHT31;55632;51.962;16.116;2022-12-15T08:40:44;-3.15;87.26
68648;SHT31;55632;51.962;16.116;2022-12-15T08:45:45;-3.11;87.25
68648;SHT31;55632;51.962;16.116;2022-12-15T08:50:46;-2.98;87.28
68648;SHT31;55632;51.962;16.116;2022-12-15T08:55:47;-2.89;87.25
68648;SHT31;55632;51.962;16.116;2022-12-15T09:00:47;-2.81;87.27
68648;SHT31;55632;51.962;16.116;2022-12-15T09:05:48;-2.71;87.24
68648;SHT31;55632;51.962;16.116;2022-12-15T09:10:50;-2.63;87.16
68648;SHT31;55632;51.962;16.116;2022-12-15T09:16:10;-2.57;86.96
68648;SHT31;55632;51.962;16.116;2022-12-15T09:21:13;-2.49;87.01
68648;SHT31;55632;51.962;16.116;2022-12-15T09:26:15;-2.42;86.96
68648;SHT31;55632;51.962;16.116;2022-12-15T09:31:20;-2.28;86.98
68648;SHT31;55632;51.962;16.116;2022-12-15T09:36:22;-2.19;86.70
68648;SHT31;55632;51.962;16.116;2022-12-15T09:41:26;-2.10;86.75
68648;SHT31;55632;51.962;16.116;2022-12-15T09:47:08;-1.98;86.60
68648;SHT31;55632;51.962;16.116;2022-12-15T09:52:15;-1.91;86.34
68648;SHT31;55632;51.962;16.116;2022-12-15T10:02:59;-1.89;85.41
68648;SHT31;55632;51.962;16.116;2022-12-15T10:08:04;-1.89;85.36
68648;SHT31;55632;51.962;16.116;2022-12-15T10:13:14;-1.87;85.21
68648;SHT31;55632;51.962;16.116;2022-12-15T10:18:37;-1.87;85.03
68648;SHT31;55632;51.962;16.116;2022-12-15T10:23:39;-1.87;84.76
68648;SHT31;55632;51.962;16.116;2022-12-15T10:34:15;-1.82;84.50
68648;SHT31;55632;51.962;16.116;2022-12-15T10:39:19;-1.80;84.37
68648;SHT31;55632;51.962;16.116;2022-12-15T10:44:23;-1.79;84.14
68648;SHT31;55632;51.962;16.116;2022-12-15T10:49:25;-1.77;83.99
68648;SHT31;55632;51.962;16.116;2022-12-15T10:54:31;-1.77;83.73
68648;SHT31;55632;51.962;16.116;2022-12-15T10:59:36;-1.77;83.64
68648;SHT31;55632;51.962;16.116;2022-12-15T11:04:37;-1.74;83.63
68648;SHT31;55632;51.962;16.116;2022-12-15T11:09:38;-1.72;83.56
68648;SHT31;55632;51.962;16.116;2022-12-15T11:14:48;-1.69;83.24
68648;SHT31;55632;51.962;16.116;2022-12-15T11:19:52;-1.67;83.14
68648;SHT31;55632;51.962;16.116;2022-12-15T11:25:08;-1.66;83.09
68648;SHT31;55632;51.962;16.116;2022-12-15T11:30:20;-1.63;83.05
68648;SHT31;55632;51.962;16.116;2022-12-15T11:35:31;-1.59;82.98
68648;SHT31;55632;51.962;16.116;2022-12-15T11:40:41;-1.58;82.89
68648;SHT31;55632;51.962;16.116;2022-12-15T11:50:59;-1.52;82.40
68648;SHT31;55632;51.962;16.116;2022-12-15T12:01:34;-1.49;82.31
68648;SHT31;55632;51.962;16.116;2022-12-15T12:12:03;-1.45;81.99
68648;SHT31;55632;51.962;16.116;2022-12-15T12:27:55;-1.44;81.74
68648;SHT31;55632;51.962;16.116;2022-12-15T12:33:04;-1.44;81.52
68648;SHT31;55632;51.962;16.116;2022-12-15T12:38:10;-1.46;81.53
68648;SHT31;55632;51.962;16.116;2022-12-15T12:43:25;-1.49;81.30
68648;SHT31;55632;51.962;16.116;2022-12-15T12:48:34;-1.55;81.35
68648;SHT31;55632;51.962;16.116;2022-12-15T12:53:37;-1.52;81.36
68648;SHT31;55632;51.962;16.116;2022-12-15T12:58:38;-1.56;80.96
68648;SHT31;55632;51.962;16.116;2022-12-15T13:03:41;-1.62;80.99
68648;SHT31;55632;51.962;16.116;2022-12-15T13:08:52;-1.63;81.07
68648;SHT31;55632;51.962;16.116;2022-12-15T13:13:55;-1.65;80.98
68648;SHT31;55632;51.962;16.116;2022-12-15T13:24:04;-1.70;80.75
68648;SHT31;55632;51.962;16.116;2022-12-15T13:29:08;-1.77;80.79
68648;SHT31;55632;51.962;16.116;2022-12-15T13:34:13;-1.80;80.79
68648;SHT31;55632;51.962;16.116;2022-12-15T13:44:28;-1.84;80.74
68648;SHT31;55632;51.962;16.116;2022-12-15T13:54:37;-1.91;80.64
68648;SHT31;55632;51.962;16.116;2022-12-15T13:59:43;-2.02;80.42
68648;SHT31;55632;51.962;16.116;2022-12-15T14:10:48;-2.36;80.63
68648;SHT31;55632;51.962;16.116;2022-12-15T14:21:24;-2.53;80.78
68648;SHT31;55632;51.962;16.116;2022-12-15T14:26:29;-2.63;80.63
68648;SHT31;55632;51.962;16.116;2022-12-15T14:31:31;-2.74;80.87
68648;SHT31;55632;51.962;16.116;2022-12-15T14:36:32;-2.85;80.76
68648;SHT31;55632;51.962;16.116;2022-12-15T14:41:36;-2.99;80.77
68648;SHT31;55632;51.962;16.116;2022-12-15T14:46:38;-3.16;80.94
68648;SHT31;55632;51.962;16.116;2022-12-15T14:51:46;-3.29;81.07
68648;SHT31;55632;51.962;16.116;2022-12-15T14:56:58;-3.39;80.99
68648;SHT31;55632;51.962;16.116;2022-12-15T15:02:25;-3.53;80.85
68648;SHT31;55632;51.962;16.116;2022-12-15T15:07:26;-3.63;81.00
68648;SHT31;55632;51.962;16.116;2022-12-15T15:12:43;-3.85;80.71
68648;SHT31;55632;51.962;16.116;2022-12-15T15:17:53;-4.05;80.89
68648;SHT31;55632;51.962;16.116;2022-12-15T15:33:17;-4.51;81.16
68648;SHT31;55632;51.962;16.116;2022-12-15T15:38:34;-4.61;81.23
68648;SHT31;55632;51.962;16.116;2022-12-15T15:43:35;-4.76;81.15
68648;SHT31;55632;51.962;16.116;2022-12-15T15:48:43;-4.85;81.33
68648;SHT31;55632;51.962;16.116;2022-12-15T15:53:44;-4.99;81.44
68648;SHT31;55632;51.962;16.116;2022-12-15T15:58:46;-5.13;81.21
68648;SHT31;55632;51.962;16.116;2022-12-15T16:03:47;-5.27;81.38
68648;SHT31;55632;51.962;16.116;2022-12-15T16:08:51;-5.39;81.37
68648;SHT31;55632;51.962;16.116;2022-12-15T16:13:54;-5.59;81.21
68648;SHT31;55632;51.962;16.116;2022-12-15T16:18:56;-5.78;81.64
68648;SHT31;55632;51.962;16.116;2022-12-15T16:23:57;-5.91;81.79
68648;SHT31;55632;51.962;16.116;2022-12-15T16:28:58;-5.96;81.99
68648;SHT31;55632;51.962;16.116;2022-12-15T16:33:59;-6.03;82.12
68648;SHT31;55632;51.962;16.116;2022-12-15T16:39:01;-6.11;82.06
68648;SHT31;55632;51.962;16.116;2022-12-15T16:44:02;-6.20;81.91
68648;SHT31;55632;51.962;16.116;2022-12-15T16:49:03;-6.28;82.06
68648;SHT31;55632;51.962;16.116;2022-12-15T16:54:05;-6.39;82.22
68648;SHT31;55632;51.962;16.116;2022-12-15T16:59:19;-6.49;82.47
68648;SHT31;55632;51.962;16.116;2022-12-15T17:04:21;-6.56;82.73
68648;SHT31;55632;51.962;16.116;2022-12-15T17:09:24;-6.58;82.44
68648;SHT31;55632;51.962;16.116;2022-12-15T17:14:25;-6.67;82.58
68648;SHT31;55632;51.962;16.116;2022-12-15T17:19:26;-6.70;82.54
68648;SHT31;55632;51.962;16.116;2022-12-15T17:24:27;-6.76;82.46
68648;SHT31;55632;51.962;16.116;2022-12-15T17:29:27;-6.84;82.36
68648;SHT31;55632;51.962;16.116;2022-12-15T17:34:32;-6.93;82.27
68648;SHT31;55632;51.962;16.116;2022-12-15T17:39:34;-6.97;82.38
68648;SHT31;55632;51.962;16.116;2022-12-15T17:44:34;-7.03;82.55
68648;SHT31;55632;51.962;16.116;2022-12-15T17:49:35;-7.05;82.55
68648;SHT31;55632;51.962;16.116;2022-12-15T17:54:36;-7.11;82.58
68648;SHT31;55632;51.962;16.116;2022-12-15T17:59:37;-7.18;82.67
68648;SHT31;55632;51.962;16.116;2022-12-15T18:04:39;-7.23;82.80
68648;SHT31;55632;51.962;16.116;2022-12-15T18:09:40;-7.28;82.81
68648;SHT31;55632;51.962;16.116;2022-12-15T18:14:41;-7.32;82.63
68648;SHT31;55632;51.962;16.116;2022-12-15T18:19:42;-7.39;82.56
68648;SHT31;55632;51.962;16.116;2022-12-15T18:24:43;-7.46;82.59
68648;SHT31;55632;51.962;16.116;2022-12-15T18:29:44;-7.50;82.58
68648;SHT31;55632;51.962;16.116;2022-12-15T18:34:45;-7.60;82.45
68648;SHT31;55632;51.962;16.116;2022-12-15T18:39:46;-7.64;82.48
68648;SHT31;55632;51.962;16.116;2022-12-15T18:44:49;-7.73;82.36
68648;SHT31;55632;51.962;16.116;2022-12-15T18:49:51;-7.80;82.15
68648;SHT31;55632;51.962;16.116;2022-12-15T18:54:52;-7.85;82.18
68648;SHT31;55632;51.962;16.116;2022-12-15T19:05:07;-7.98;82.48
68648;SHT31;55632;51.962;16.116;2022-12-15T19:10:28;-8.05;82.79
68648;SHT31;55632;51.962;16.116;2022-12-15T19:15:29;-8.18;82.82
68648;SHT31;55632;51.962;16.116;2022-12-15T19:20:30;-8.22;82.96
68648;SHT31;55632;51.962;16.116;2022-12-15T19:25:50;-8.22;83.03
68648;SHT31;55632;51.962;16.116;2022-12-15T19:30:51;-8.20;83.11
68648;SHT31;55632;51.962;16.116;2022-12-15T19:35:52;-8.23;83.09
68648;SHT31;55632;51.962;16.116;2022-12-15T19:40:56;-8.22;82.89
68648;SHT31;55632;51.962;16.116;2022-12-15T19:45:57;-8.27;82.87
68648;SHT31;55632;51.962;16.116;2022-12-15T19:50:58;-8.32;82.84
68648;SHT31;55632;51.962;16.116;2022-12-15T19:55:59;-8.34;82.76
68648;SHT31;55632;51.962;16.116;2022-12-15T20:01:06;-8.47;82.64
68648;SHT31;55632;51.962;16.116;2022-12-15T20:06:20;-8.51;82.79
68648;SHT31;55632;51.962;16.116;2022-12-15T20:11:25;-8.51;82.70
68648;SHT31;55632;51.962;16.116;2022-12-15T20:16:26;-8.53;82.66
68648;SHT31;55632;51.962;16.116;2022-12-15T20:21:32;-8.55;82.62
68648;SHT31;55632;51.962;16.116;2022-12-15T20:26:35;-8.64;82.53
68648;SHT31;55632;51.962;16.116;2022-12-15T20:31:37;-8.72;82.57
68648;SHT31;55632;51.962;16.116;2022-12-15T20:36:38;-8.79;82.50
68648;SHT31;55632;51.962;16.116;2022-12-15T20:41:39;-8.87;82.67
68648;SHT31;55632;51.962;16.116;2022-12-15T20:46:39;-8.89;82.86
68648;SHT31;55632;51.962;16.116;2022-12-15T20:51:40;-8.91;82.70
68648;SHT31;55632;51.962;16.116;2022-12-15T20:56:41;-8.92;82.77
68648;SHT31;55632;51.962;16.116;2022-12-15T21:01:42;-8.98;82.68
68648;SHT31;55632;51.962;16.116;2022-12-15T21:06:44;-9.06;82.55
68648;SHT31;55632;51.962;16.116;2022-12-15T21:11:46;-9.13;82.75
68648;SHT31;55632;51.962;16.116;2022-12-15T21:16:47;-9.12;82.80
68648;SHT31;55632;51.962;16.116;2022-12-15T21:21:52;-9.16;82.94
68648;SHT31;55632;51.962;16.116;2022-12-15T21:26:53;-9.15;82.96
68648;SHT31;55632;51.962;16.116;2022-12-15T21:31:54;-9.12;83.02
68648;SHT31;55632;51.962;16.116;2022-12-15T21:36:56;-9.10;82.93
68648;SHT31;55632;51.962;16.116;2022-12-15T21:42:10;-9.10;82.79
68648;SHT31;55632;51.962;16.116;2022-12-15T21:47:25;-9.20;82.71
68648;SHT31;55632;51.962;16.116;2022-12-15T21:52:46;-9.24;82.91
68648;SHT31;55632;51.962;16.116;2022-12-15T21:57:47;-9.27;83.03
68648;SHT31;55632;51.962;16.116;2022-12-15T22:02:50;-9.28;83.01
68648;SHT31;55632;51.962;16.116;2022-12-15T22:07:51;-9.24;83.08
68648;SHT31;55632;51.962;16.116;2022-12-15T22:12:52;-9.23;83.07
68648;SHT31;55632;51.962;16.116;2022-12-15T22:17:53;-9.24;83.02
68648;SHT31;55632;51.962;16.116;2022-12-15T22:22:55;-9.24;83.02
68648;SHT31;55632;51.962;16.116;2022-12-15T22:27:56;-9.20;83.12
68648;SHT31;55632;51.962;16.116;2022-12-15T22:32:57;-9.16;83.05
68648;SHT31;55632;51.962;16.116;2022-12-15T22:37:57;-9.16;83.07
68648;SHT31;55632;51.962;16.116;2022-12-15T22:42:59;-9.16;83.17
68648;SHT31;55632;51.962;16.116;2022-12-15T22:48:00;-9.13;83.20
68648;SHT31;55632;51.962;16.116;2022-12-15T22:53:11;-9.17;83.22
68648;SHT31;55632;51.962;16.116;2022-12-15T22:58:16;-9.15;83.46
68648;SHT31;55632;51.962;16.116;2022-12-15T23:03:23;-9.07;83.65
68648;SHT31;55632;51.962;16.116;2022-12-15T23:08:26;-8.99;83.82
68648;SHT31;55632;51.962;16.116;2022-12-15T23:13:27;-8.88;83.90
68648;SHT31;55632;51.962;16.116;2022-12-15T23:18:28;-8.78;83.99
68648;SHT31;55632;51.962;16.116;2022-12-15T23:23:29;-8.72;84.05
68648;SHT31;55632;51.962;16.116;2022-12-15T23:28:32;-8.62;84.13
68648;SHT31;55632;51.962;16.116;2022-12-15T23:33:33;-8.54;84.14
68648;SHT31;55632;51.962;16.116;2022-12-15T23:38:34;-8.47;84.18
68648;SHT31;55632;51.962;16.116;2022-12-15T23:43:35;-8.43;84.38
68648;SHT31;55632;51.962;16.116;2022-12-15T23:48:41;-8.34;84.45
68648;SHT31;55632;51.962;16.116;2022-12-15T23:53:43;-8.27;84.59
68648;SHT31;55632;51.962;16.116;2022-12-15T23:58:45;-8.18;84.62
